Weather observations for the past three days for
Block Island State Airport
| Date | Time (edt) | Wind (mph) | Vis. (mi.) | Weather | Sky Cond. | Temperature (ºF) | Relative Humidity | Wind Chill (°F) | Heat Index (°F) | Pressure | Precipitation (in) | ||||||
|---|---|---|---|---|---|---|---|---|---|---|---|---|---|---|---|---|---|
| Air | Dwpt | 6 hour | altimeter (in) | sea level (mb) | 1 hr | 3 hr | 6 hr | ||||||||||
| Max. | Min. | ||||||||||||||||
| 07 | 13:56 | W 17 | 10.00 | Fair | CLR | 57.9 | 36 | 59 | 48 | 44% | 29.76 | 1007.9 | |||||
| 07 | 12:56 | W 16 | 10.00 | Fair | CLR | 57 | 37.9 | 49% | 29.78 | 1008.4 | |||||||
| 07 | 11:56 | W 13 | 10.00 | A Few Clouds | FEW090 | 55 | 44.1 | 67% | 29.8 | 1009.0 | |||||||
| 07 | 10:56 | NW 9 | 10.00 | Mostly Cloudy | BKN090 | 54 | 45 | 72% | 29.81 | 1009.4 | |||||||
| 07 | 09:56 | NW 8 | 10.00 | Overcast | OVC090 | 51.1 | 46.9 | 86% | 29.81 | 1009.3 | |||||||
| 07 | 08:56 | W 5 | 10.00 | Light Rain | FEW007 BKN070 OVC085 | 48.9 | 46.9 | 93% | 48 | 29.82 | 1009.7 | ||||||
| 07 | 07:56 | NW 9 | 10.00 | Light Rain | OVC055 | 48 | 45 | 51.1 | 48 | 89% | 44 | 29.81 | 1009.5 | ||||
| 07 | 06:56 | NW 9 | 10.00 | Light Rain | OVC060 | 48 | 46.9 | 96% | 44 | 29.79 | 1009.0 | ||||||
| 07 | 05:56 | N 8 | 10.00 | Light Rain | FEW019 BKN060 OVC070 | 48 | 46.9 | 96% | 45 | 29.75 | 1007.7 | ||||||
| 07 | 04:56 | NW 8 | 10.00 | Light Rain | FEW032 SCT040 OVC055 | 50 | 50 | 100% | 47 | 29.74 | 1007.3 | ||||||
| 07 | 03:56 | NW 6 | 4.00 | Rain Fog/Mist | BKN003 BKN008 OVC023 | 50 | 50 | 100% | 48 | 29.74 | 1007.2 | ||||||
| 07 | 02:56 | SW 8 | 3.00 | Fog/Mist | OVC003 | 50 | 48.9 | 96% | 47 | 29.73 | 1006.7 | ||||||
| 07 | 01:56 | SW 10 | 4.00 | Fog/Mist | OVC005 | 50 | 48.9 | 52 | 50 | 96% | 46 | 29.73 | 1006.7 | ||||
| 07 | 00:56 | SW 14 | 4.00 | Fog/Mist | OVC003 | 50 | 48.9 | 96% | 45 | 29.76 | 1007.9 | ||||||
| 06 | 23:56 | SW 16 | 2.00 | Fog/Mist | OVC003 | 50 | 50 | 100% | 45 | 29.76 | 1007.8 | ||||||
| 06 | 22:56 | SW 20 | 1.00 | Fog/Mist | OVC003 | 51.1 | 50 | 96% | 29.77 | 1008.0 | |||||||
| 06 | 21:56 | SW 18 G 25 | 6.00 | Fog/Mist | BKN003 OVC036 | 51.1 | 50 | 96% | 29.78 | 1008.4 | |||||||
| 06 | 20:56 | SW 18 G 28 | 6.00 | Fog/Mist | OVC003 | 52 | 51.1 | 97% | 29.79 | 1008.9 | |||||||
| 06 | 19:56 | SW 18 G 24 | 4.00 | Fog/Mist | OVC005 | 52 | 51.1 | 55.9 | 52 | 97% | 29.78 | 1008.6 | |||||
| 06 | 18:56 | SW 15 G 23 | 6.00 | Fog/Mist | FEW004 OVC034 | 52 | 51.1 | 97% | 29.78 | 1008.5 | |||||||
| 06 | 17:56 | S 20 G 26 | 1.75 | Fog/Mist | SCT010 BKN022 OVC060 | 52 | 51.1 | 97% | 29.79 | 1008.7 | |||||||
| 06 | 16:56 | S 17 G 25 | 9.00 | Overcast | OVC070 | 53.1 | 50 | 89% | 29.79 | 1009.0 | |||||||
| 06 | 15:56 | S 16 G 23 | 7.00 | Overcast | OVC090 | 53.1 | 50 | 89% | 29.81 | 1009.5 | |||||||
| 06 | 14:56 | S 17 G 25 | 10.00 | Mostly Cloudy | BKN080 BKN110 | 54 | 48.9 | 83% | 29.83 | 1010.2 | |||||||
| 06 | 13:56 | S 20 G 31 | 10.00 | Fair | CLR | 55 | 50 | 57.9 | 55 | 83% | 29.85 | 1010.8 | |||||
| 06 | 12:56 | S 18 G 26 | 9.00 | Fair | CLR | 57 | 50 | 78% | 29.87 | 1011.6 | |||||||
| 06 | 11:56 | S 18 G 25 | 9.00 | Fair | CLR | 55.9 | 50 | 81% | 29.89 | 1012.1 | |||||||
| 06 | 10:56 | S 21 G 28 | 9.00 | Fair and Breezy | CLR | 57.9 | 51.1 | 78% | 29.9 | 1012.6 | |||||||
| 06 | 09:56 | S 17 G 28 | 9.00 | Fair | CLR | 55.9 | 50 | 81% | 29.89 | 1012.2 | |||||||
| 06 | 08:56 | SW 21 G 24 | 9.00 | Fair and Breezy | CLR | 55.9 | 51.1 | 84% | 29.9 | 1012.7 | |||||||
| 06 | 07:56 | SW 15 | 8.00 | Fair | CLR | 55 | 50 | 55 | 51.1 | 83% | 29.91 | 1012.9 | |||||
| 06 | 06:56 | S 20 G 28 | 8.00 | Fair | CLR | 52 | 48.9 | 89% | 29.9 | 1012.7 | |||||||
| 06 | 05:56 | S 18 | 8.00 | Fair | CLR | 52 | 50 | 93% | 29.9 | 1012.6 | |||||||
| 06 | 04:56 | S 20 G 26 | 9.00 | Fair | CLR | 52 | 50 | 93% | 29.91 | 1012.8 | |||||||
| 06 | 03:56 | S 17 G 24 | 8.00 | Fair | CLR | 52 | 50 | 93% | 29.92 | 1013.1 | |||||||
| 06 | 02:56 | S 18 G 26 | 9.00 | Fair | CLR | 52 | 50 | 93% | 29.91 | 1013.0 | |||||||
| 06 | 01:56 | SW 17 G 25 | 10.00 | Fair | CLR | 52 | 50 | 53.1 | 51.1 | 93% | 29.91 | 1012.9 | |||||
| 06 | 00:56 | SW 18 G 28 | 10.00 | Fair | CLR | 52 | 48.9 | 89% | 29.92 | 1013.2 | |||||||
| 05 | 23:56 | S 20 G 25 | 9.00 | Fair | CLR | 52 | 48.9 | 89% | 29.93 | 1013.4 | |||||||
| 05 | 22:56 | SW 20 G 28 | 10.00 | Fair | CLR | 53.1 | 48.9 | 86% | 29.92 | 1013.2 | |||||||
| 05 | 21:56 | SW 18 G 26 | 10.00 | Fair | CLR | 53.1 | 48 | 83% | 29.92 | 1013.3 | |||||||
| 05 | 20:56 | SW 22 G 30 | 10.00 | Fair and Breezy | CLR | 53.1 | 46.9 | 80% | 29.9 | 1012.7 | |||||||
| 05 | 19:56 | SW 18 G 30 | 9.00 | Fair | CLR | 53.1 | 46 | 55.9 | 53.1 | 77% | 29.88 | 1011.8 | |||||
| 05 | 18:56 | SW 22 G 31 | 10.00 | Fair and Breezy | CLR | 54 | 46.9 | 77% | 29.85 | 1011.0 | |||||||
| 05 | 17:56 | S 24 G 33 | 10.00 | Fair and Breezy | CLR | 55 | 48 | 77% | 29.85 | 1010.9 | |||||||
| 05 | 16:56 | SW 22 G 33 | 9.00 | Fair and Breezy | CLR | 55 | 48 | 77% | 29.85 | 1010.9 | |||||||
| 05 | 15:56 | S 21 G 28 | 9.00 | Fair and Breezy | CLR | 55.9 | 48 | 75% | 29.86 | 1011.2 | |||||||
| 05 | 14:56 | S 20 G 30 | 9.00 | Fair | CLR | 55.9 | 48.9 | 77% | 29.87 | 1011.5 | |||||||
| 05 | 13:56 | S 22 G 28 | 9.00 | Fair and Breezy | CLR | 55.9 | 48 | 57 | 52 | 75% | 29.88 | 1012.0 | |||||
| 05 | 12:56 | SW 23 G 30 | 9.00 | Fair and Breezy | CLR | 55.9 | 48 | 75% | 29.89 | 1012.3 | |||||||
| 05 | 11:56 | SW 18 G 28 | 9.00 | Fair | CLR | 55.9 | 48 | 75% | 29.92 | 1013.2 | |||||||
| 05 | 10:56 | S 18 G 25 | 9.00 | A Few Clouds | FEW110 | 54 | 48 | 80% | 29.91 | 1013.0 | |||||||
| 05 | 09:56 | SW 18 G 26 | 8.00 | Fair | CLR | 55 | 48 | 77% | 29.91 | 1012.7 | |||||||
| 05 | 08:56 | SW 18 | 9.00 | Partly Cloudy | SCT100 | 53.1 | 48 | 83% | 29.92 | 1013.1 | |||||||
| 05 | 07:56 | SW 15 | 9.00 | Fair | CLR | 52 | 48 | 52 | 48 | 86% | 29.9 | 1012.7 | |||||
| 05 | 06:56 | S 16 | 9.00 | Fair | CLR | 50 | 46.9 | 89% | 45 | 29.89 | 1012.3 | ||||||
| 05 | 05:56 | S 14 | 9.00 | Fair | CLR | 48.9 | 46 | 90% | 44 | 29.88 | 1012.0 | ||||||
| 05 | 04:56 | S 14 | 10.00 | Mostly Cloudy | BKN095 | 48.9 | 46 | 90% | 44 | 29.88 | 1011.8 | ||||||
| 05 | 03:56 | S 15 | 10.00 | A Few Clouds | FEW085 | 48.9 | 45 | 86% | 44 | 29.88 | 1012.0 | ||||||
| 05 | 02:56 | SW 17 G 23 | 10.00 | Fair | CLR | 50 | 46 | 86% | 45 | 29.89 | 1012.0 | ||||||
| 05 | 01:56 | SW 16 G 23 | 10.00 | Fair | CLR | 50 | 46 | 50 | 48.9 | 86% | 45 | 29.9 | 1012.4 | ||||
| 05 | 00:56 | SW 16 G 24 | 10.00 | Fair | CLR | 48.9 | 46 | 90% | 44 | 29.9 | 1012.7 | ||||||
| 04 | 23:56 | SW 16 | 10.00 | Fair | CLR | 48.9 | 46 | 90% | 44 | 29.91 | 1012.9 | ||||||
| 04 | 22:56 | S 16 | 10.00 | Fair | CLR | 48.9 | 46 | 90% | 44 | 29.91 | 1013.0 | ||||||
| 04 | 21:56 | SW 17 G 24 | 10.00 | Fair | CLR | 48.9 | 46 | 90% | 43 | 29.91 | 1013.0 | ||||||
| 04 | 20:56 | SW 20 | 10.00 | Fair | CLR | 50 | 45 | 83% | 44 | 29.89 | 1012.2 | ||||||
| 04 | 19:56 | SW 20 G 28 | 10.00 | Fair | CLR | 50 | 44.1 | 55.9 | 50 | 80% | 44 | 29.87 | 1011.5 | ||||
| 04 | 18:56 | S 18 G 26 | 10.00 | Fair | CLR | 51.1 | 43 | 74% | 29.86 | 1011.3 | |||||||
| 04 | 17:56 | SW 21 G 28 | 10.00 | Fair and Breezy | CLR | 53.1 | 43 | 69% | 29.86 | 1011.4 | |||||||
| 04 | 16:56 | SW 18 G 29 | 10.00 | Fair | CLR | 54 | 43 | 67% | 29.87 | 1011.4 | |||||||
| 04 | 15:56 | SW 24 G 31 | 10.00 | Fair and Breezy | CLR | 55 | 43 | 64% | 29.87 | 1011.4 | |||||||
| 04 | 14:56 | SW 23 G 29 | 10.00 | Fair and Breezy | CLR | 55 | 43 | 64% | 29.88 | 1011.8 | |||||||
| Date | Time (edt) | Wind (mph) | Vis. (mi.) | Weather | Sky Cond. | Air | Dwpt | Max. | Min. | Relative Humidity | Wind Chill (°F) | Heat Index (°F) | altimeter (in) | sea level (mb) | 1 hr | 3 hr | 6 hr |
| 6 hour | |||||||||||||||||
| Temperature (ºF) | Pressure | Precipitation (in) | |||||||||||||||